Time;durP1;ratioP1;P1;durP2;ratioP2;P2;SDS_P1;SDS_P2;PMS_P1;PMS_P2;Temp;Humidity;BMP_temperature;BMP_pressure;BME280_temperature;BME280_humidity;BME280_pressure;Samples;Min_cycle;Max_cycle;Signal;HPM_P1;HPM_P2
2020/12/25 00:02:24;;;;;;;0.37;0.27;;;6.10;99.90;;;;;;5084901;28;20205;-84
2020/12/25 00:04:50;;;;;;;0.30;0.30;;;6.10;99.90;;;;;;5106540;28;20327;-86
2020/12/25 00:07:15;;;;;;;1.23;1.13;;;6.00;99.90;;;;;;5103328;28;20185;-83
2020/12/25 00:09:41;;;;;;;0.40;0.40;;;6.10;99.90;;;;;;5111896;28;20190;-84
2020/12/25 00:12:07;;;;;;;0.40;0.40;;;6.10;99.90;;;;;;5085892;28;20647;-83
2020/12/25 00:14:33;;;;;;;0.57;0.40;;;6.10;99.90;;;;;;5090282;28;20562;-83
2020/12/25 00:16:59;;;;;;;0.20;0.20;;;6.10;99.90;;;;;;5088816;28;20247;-84
2020/12/25 00:19:25;;;;;;;0.10;0.10;;;6.20;99.90;;;;;;5114707;28;20183;-84
2020/12/25 00:21:51;;;;;;;0.20;0.20;;;6.20;99.90;;;;;;5086609;28;20713;-84
2020/12/25 00:24:16;;;;;;;0.17;0.17;;;6.00;99.90;;;;;;5096589;28;20189;-84
2020/12/25 00:26:42;;;;;;;0.57;0.23;;;6.00;99.90;;;;;;5094090;28;20732;-83
2020/12/25 00:29:07;;;;;;;0.40;0.40;;;5.90;99.90;;;;;;5092452;28;20185;-83
2020/12/25 00:31:35;;;;;;;0.20;0.20;;;6.00;99.90;;;;;;5105300;28;20225;-83
2020/12/25 00:34:05;;;;;;;0.40;0.40;;;6.00;99.90;;;;;;5088814;28;20231;-84
2020/12/25 00:36:33;;;;;;;0.20;0.20;;;6.00;99.90;;;;;;5115694;28;20267;-84
2020/12/25 00:39:01;;;;;;;0.03;0.03;;;6.10;99.90;;;;;;5090704;28;20223;-85
2020/12/25 00:41:27;;;;;;;0.83;0.80;;;6.00;99.90;;;;;;5084085;28;20219;-85
2020/12/25 00:43:53;;;;;;;0.30;0.30;;;5.90;99.90;;;;;;5091448;28;20552;-84
2020/12/25 00:46:19;;;;;;;0.30;0.30;;;5.90;99.90;;;;;;5093506;28;20605;-84
2020/12/25 00:48:45;;;;;;;0.43;0.30;;;6.00;99.90;;;;;;5089552;28;20192;-83
2020/12/25 00:51:14;;;;;;;0.10;0.10;;;5.90;99.90;;;;;;5087511;28;20211;-84
2020/12/25 00:53:40;;;;;;;0.30;0.30;;;5.90;99.90;;;;;;5110741;28;20421;-83
2020/12/25 00:56:06;;;;;;;0.10;0.10;;;6.00;99.90;;;;;;5099266;28;20190;-85
2020/12/25 00:58:32;;;;;;;0.50;0.50;;;6.00;99.90;;;;;;5088955;28;20556;-83
2020/12/25 01:00:57;;;;;;;0.10;0.10;;;5.80;99.90;;;;;;5088888;28;20208;-83
2020/12/25 01:03:23;;;;;;;0.90;0.90;;;5.80;99.90;;;;;;5109364;28;20218;-82
2020/12/25 01:05:48;;;;;;;0.20;0.20;;;5.80;99.90;;;;;;5085719;28;20586;-86
2020/12/25 01:08:15;;;;;;;0.20;0.20;;;5.70;99.90;;;;;;5088877;28;20203;-83
2020/12/25 01:10:40;;;;;;;0.17;0.17;;;5.60;99.90;;;;;;5100582;28;20209;-85
2020/12/25 01:13:06;;;;;;;0.20;0.20;;;5.60;99.90;;;;;;5119407;28;20188;-83
2020/12/25 01:15:31;;;;;;;0.27;0.27;;;5.50;99.90;;;;;;5099865;28;20217;-83
2020/12/25 01:17:57;;;;;;;0.23;0.23;;;5.50;99.90;;;;;;5090189;28;20183;-86
2020/12/25 01:20:23;;;;;;;0.30;0.27;;;5.40;99.90;;;;;;5084195;28;20275;-83
2020/12/25 01:22:49;;;;;;;0.10;0.10;;;5.30;99.90;;;;;;5111281;28;20181;-85
2020/12/25 01:25:14;;;;;;;0.20;0.20;;;5.20;99.90;;;;;;5100447;28;20195;-84
2020/12/25 01:27:40;;;;;;;0.10;0.10;;;5.20;99.90;;;;;;5090383;28;20198;-86
2020/12/25 01:30:05;;;;;;;0.20;0.20;;;5.10;99.90;;;;;;5097104;28;20210;-83
2020/12/25 01:32:34;;;;;;;0.20;0.20;;;5.10;99.90;;;;;;5110098;28;20651;-83
2020/12/25 01:35:01;;;;;;;0.10;0.10;;;5.00;99.90;;;;;;5085065;28;20211;-86
2020/12/25 01:37:26;;;;;;;0.30;0.30;;;5.00;99.90;;;;;;5107405;28;20225;-85
2020/12/25 01:39:52;;;;;;;0.10;0.10;;;4.90;99.90;;;;;;5113151;28;20174;-83
2020/12/25 01:42:17;;;;;;;1.10;0.30;;;4.90;99.90;;;;;;5086974;28;20567;-85
2020/12/25 01:44:43;;;;;;;0.00;0.00;;;4.90;99.90;;;;;;5100479;28;20182;-86
2020/12/25 01:47:08;;;;;;;0.10;0.10;;;5.00;99.90;;;;;;5109746;28;20176;-83
2020/12/25 01:49:34;;;;;;;0.10;0.10;;;4.90;99.90;;;;;;5109300;28;20192;-84
2020/12/25 01:52:00;;;;;;;0.27;0.27;;;5.00;99.90;;;;;;5077966;28;20814;-84
2020/12/25 01:54:26;;;;;;;0.43;0.20;;;5.10;99.90;;;;;;5108109;28;20201;-84
2020/12/25 01:56:53;;;;;;;0.23;0.23;;;4.90;99.90;;;;;;5088835;28;20208;-85
2020/12/25 01:59:19;;;;;;;0.10;0.10;;;4.90;99.90;;;;;;5079168;28;20591;-84
2020/12/25 02:01:45;;;;;;;0.13;0.13;;;4.90;99.90;;;;;;5087501;28;20210;-83
2020/12/25 02:04:10;;;;;;;0.33;0.33;;;4.90;99.90;;;;;;5084135;28;20679;-84
2020/12/25 02:06:41;;;;;;;0.20;0.20;;;4.90;99.90;;;;;;5089232;28;20189;-83
2020/12/25 02:09:07;;;;;;;0.17;0.17;;;4.90;99.90;;;;;;5083628;28;20189;-83
2020/12/25 02:11:35;;;;;;;0.10;0.10;;;4.80;99.90;;;;;;5086143;28;20738;-83
2020/12/25 02:14:00;;;;;;;0.17;0.17;;;4.90;99.90;;;;;;5108505;28;20227;-84
2020/12/25 02:16:26;;;;;;;0.83;0.40;;;4.90;99.90;;;;;;5098948;28;20177;-83
2020/12/25 02:18:52;;;;;;;0.43;0.40;;;4.80;99.90;;;;;;5084786;28;20189;-83
2020/12/25 02:21:17;;;;;;;0.10;0.10;;;4.80;99.90;;;;;;5088226;28;20197;-85
2020/12/25 02:23:44;;;;;;;0.17;0.17;;;4.80;99.90;;;;;;5108451;28;20212;-83
2020/12/25 02:26:10;;;;;;;0.47;0.17;;;4.70;99.90;;;;;;5098262;28;20189;-85
2020/12/25 02:28:36;;;;;;;0.10;0.10;;;4.50;99.90;;;;;;5093733;28;20645;-87
2020/12/25 02:31:02;;;;;;;0.10;0.10;;;4.50;99.90;;;;;;5086255;28;20269;-85
2020/12/25 02:33:27;;;;;;;0.10;0.10;;;4.50;99.90;;;;;;5093500;28;20193;-83
2020/12/25 02:35:53;;;;;;;0.40;0.40;;;4.50;99.90;;;;;;5088711;28;20216;-83
2020/12/25 02:38:18;;;;;;;0.17;0.17;;;4.60;99.90;;;;;;5087431;28;20187;-83
2020/12/25 02:40:44;;;;;;;0.20;0.20;;;4.50;99.90;;;;;;5107675;28;20214;-84
2020/12/25 02:43:09;;;;;;;0.10;0.10;;;4.40;99.90;;;;;;5117135;28;20169;-83
2020/12/25 02:45:35;;;;;;;0.10;0.10;;;4.40;99.90;;;;;;5105281;28;20284;-83
2020/12/25 02:48:00;;;;;;;0.40;0.40;;;4.40;99.90;;;;;;5111529;28;20188;-83
2020/12/25 02:50:26;;;;;;;0.30;0.30;;;4.30;99.90;;;;;;5095759;28;20197;-83
2020/12/25 02:52:51;;;;;;;0.20;0.20;;;4.30;99.90;;;;;;5087547;28;20184;-84
2020/12/25 02:55:17;;;;;;;0.00;0.00;;;4.30;99.90;;;;;;5106746;28;20205;-85
2020/12/25 02:57:43;;;;;;;0.10;0.10;;;4.20;99.90;;;;;;5083834;28;20177;-83
2020/12/25 03:00:08;;;;;;;0.33;0.33;;;4.20;99.90;;;;;;5084909;28;20281;-83
2020/12/25 03:02:34;;;;;;;0.50;0.50;;;4.20;99.90;;;;;;5108830;28;20210;-85
2020/12/25 03:04:59;;;;;;;0.00;0.00;;;4.20;99.90;;;;;;5097472;28;20181;-83
2020/12/25 03:07:25;;;;;;;0.10;0.10;;;4.20;99.90;;;;;;5110900;28;20215;-83
2020/12/25 03:09:50;;;;;;;0.83;0.57;;;4.10;99.90;;;;;;5084428;28;20656;-86
2020/12/25 03:12:16;;;;;;;0.20;0.20;;;4.20;99.90;;;;;;5083166;28;20211;-86
2020/12/25 03:14:41;;;;;;;0.10;0.10;;;4.20;99.90;;;;;;5105889;28;20201;-83
2020/12/25 03:17:07;;;;;;;0.00;0.00;;;4.20;99.90;;;;;;5109123;28;20644;-83
2020/12/25 03:19:32;;;;;;;0.20;0.20;;;4.20;99.90;;;;;;5084482;28;20203;-86
2020/12/25 03:21:58;;;;;;;0.20;0.20;;;4.20;99.90;;;;;;5105520;28;20203;-87
2020/12/25 03:24:23;;;;;;;0.20;0.20;;;4.20;99.90;;;;;;5105836;28;20596;-83
2020/12/25 03:26:49;;;;;;;0.20;0.20;;;4.20;99.90;;;;;;5103587;28;20211;-84
2020/12/25 03:29:15;;;;;;;1.30;1.17;;;4.20;99.90;;;;;;5106306;28;20196;-84
2020/12/25 03:31:40;;;;;;;0.10;0.10;;;4.30;99.90;;;;;;5078704;28;20840;-85
2020/12/25 03:34:07;;;;;;;0.10;0.10;;;4.20;99.90;;;;;;5076679;28;20270;-84
2020/12/25 03:36:32;;;;;;;0.10;0.10;;;4.20;99.90;;;;;;5106122;28;20223;-84
2020/12/25 03:38:58;;;;;;;0.60;0.23;;;4.30;99.90;;;;;;5084838;28;20180;-84
2020/12/25 03:41:24;;;;;;;0.10;0.10;;;4.40;99.90;;;;;;5089552;28;20217;-83
2020/12/25 03:43:49;;;;;;;0.63;0.30;;;4.60;99.90;;;;;;5090659;28;20338;-83
2020/12/25 03:46:15;;;;;;;0.00;0.00;;;4.70;99.90;;;;;;5089524;28;20215;-83
2020/12/25 03:48:41;;;;;;;0.00;0.00;;;4.70;99.90;;;;;;5113401;28;20168;-85
2020/12/25 03:51:06;;;;;;;0.10;0.10;;;4.80;99.90;;;;;;5110544;28;20735;-84
2020/12/25 03:53:32;;;;;;;0.10;0.10;;;4.80;99.90;;;;;;5112224;28;20211;-85
2020/12/25 03:55:57;;;;;;;0.10;0.10;;;4.90;99.90;;;;;;5088132;28;20233;-83
2020/12/25 03:58:23;;;;;;;0.13;0.13;;;5.00;99.90;;;;;;5091733;28;20280;-84
2020/12/25 04:00:49;;;;;;;1.00;1.00;;;4.80;99.90;;;;;;5100163;28;20707;-84
2020/12/25 04:03:14;;;;;;;0.23;0.23;;;4.80;99.90;;;;;;5111785;28;20190;-83
2020/12/25 04:05:40;;;;;;;0.20;0.20;;;4.80;99.90;;;;;;5117457;28;20188;-83
2020/12/25 04:08:06;;;;;;;0.10;0.10;;;4.80;99.90;;;;;;5110961;28;20564;-84
2020/12/25 04:10:32;;;;;;;0.23;0.23;;;4.80;99.90;;;;;;5107862;28;20254;-84
2020/12/25 04:13:00;;;;;;;0.17;0.17;;;4.90;99.90;;;;;;5113692;28;20184;-85
2020/12/25 04:15:26;;;;;;;0.30;0.30;;;4.90;99.90;;;;;;5099188;28;20202;-83
2020/12/25 04:17:52;;;;;;;0.10;0.10;;;5.00;99.90;;;;;;5092211;28;20253;-84
2020/12/25 04:20:18;;;;;;;0.03;0.03;;;5.00;99.90;;;;;;5091407;28;20210;-84
2020/12/25 04:22:43;;;;;;;8.80;0.23;;;4.90;99.90;;;;;;5112497;28;20191;-83
2020/12/25 04:25:09;;;;;;;0.10;0.10;;;5.00;99.90;;;;;;5087957;28;20275;-85
2020/12/25 04:27:34;;;;;;;0.10;0.10;;;5.00;99.90;;;;;;5091490;28;20194;-83
2020/12/25 04:30:00;;;;;;;0.97;0.20;;;4.90;99.90;;;;;;5094597;28;20566;-83
2020/12/25 04:32:25;;;;;;;0.10;0.10;;;5.00;99.90;;;;;;5080698;28;20235;-84
2020/12/25 04:34:51;;;;;;;0.10;0.10;;;5.10;99.90;;;;;;5086128;28;20210;-87
2020/12/25 04:37:17;;;;;;;0.30;0.30;;;5.20;99.90;;;;;;5093786;28;20188;-84
2020/12/25 04:39:43;;;;;;;0.20;0.20;;;5.10;99.90;;;;;;5098119;28;20578;-85
2020/12/25 04:42:09;;;;;;;0.30;0.30;;;5.20;99.90;;;;;;5082029;28;20217;-83
2020/12/25 04:44:34;;;;;;;0.20;0.20;;;5.00;99.90;;;;;;5099295;28;20181;-83
2020/12/25 04:47:13;;;;;;;0.13;0.13;;;5.00;99.90;;;;;;5112093;28;20188;-84
2020/12/25 04:49:39;;;;;;;0.17;0.17;;;5.00;99.90;;;;;;5089243;28;20187;-83
2020/12/25 04:52:05;;;;;;;0.40;0.40;;;4.90;99.90;;;;;;5090351;28;20217;-83
2020/12/25 04:54:31;;;;;;;0.20;0.20;;;4.90;99.90;;;;;;5083914;28;20205;-83
2020/12/25 04:56:58;;;;;;;0.20;0.20;;;4.80;99.90;;;;;;5110585;28;20198;-84
2020/12/25 04:59:28;;;;;;;0.00;0.00;;;4.80;99.90;;;;;;5097630;28;20249;-83
2020/12/25 05:02:00;;;;;;;0.30;0.30;;;4.80;99.90;;;;;;5089980;28;20227;-84
2020/12/25 05:04:26;;;;;;;0.00;0.00;;;4.80;99.90;;;;;;5083752;28;20188;-83
2020/12/25 05:06:53;;;;;;;0.23;0.23;;;4.80;99.90;;;;;;5109924;28;20184;-85
2020/12/25 05:09:26;;;;;;;0.10;0.10;;;4.80;99.90;;;;;;5103532;28;20186;-85
2020/12/25 05:11:56;;;;;;;0.10;0.10;;;4.80;99.90;;;;;;5105005;28;20207;-83
2020/12/25 05:14:29;;;;;;;0.10;0.10;;;4.90;99.90;;;;;;5096890;28;20250;-85
2020/12/25 05:16:57;;;;;;;0.50;0.40;;;4.80;99.90;;;;;;5078129;28;20676;-83
2020/12/25 05:19:30;;;;;;;0.20;0.20;;;4.80;99.90;;;;;;5089622;28;20183;-83
2020/12/25 05:22:00;;;;;;;0.13;0.13;;;4.80;99.90;;;;;;5090056;28;20573;-87
2020/12/25 05:24:34;;;;;;;0.10;0.10;;;4.70;99.90;;;;;;5086364;28;20558;-85
2020/12/25 05:26:59;;;;;;;0.10;0.10;;;4.70;99.90;;;;;;5089181;28;20258;-83
2020/12/25 05:29:27;;;;;;;5.83;0.40;;;4.60;99.90;;;;;;5087261;28;20184;-83
2020/12/25 05:31:54;;;;;;;0.10;0.10;;;4.60;99.90;;;;;;5110852;28;20201;-82
2020/12/25 05:34:21;;;;;;;0.30;0.20;;;4.50;99.90;;;;;;5095921;28;20665;-83
2020/12/25 05:36:54;;;;;;;0.20;0.20;;;4.60;99.90;;;;;;5077824;28;20184;-84
2020/12/25 05:39:31;;;;;;;0.43;0.43;;;4.50;99.90;;;;;;5101569;28;20176;-83
2020/12/25 05:41:59;;;;;;;0.20;0.20;;;4.60;99.90;;;;;;5083336;28;20228;-85
2020/12/25 05:44:27;;;;;;;0.30;0.30;;;4.60;99.90;;;;;;5109045;28;20213;-83
2020/12/25 05:46:56;;;;;;;0.73;0.33;;;4.60;99.90;;;;;;5097592;28;20173;-84
2020/12/25 05:49:22;;;;;;;0.30;0.30;;;4.50;99.90;;;;;;5093807;28;20263;-84
2020/12/25 05:51:50;;;;;;;0.10;0.10;;;4.50;99.90;;;;;;5085972;28;20715;-84
2020/12/25 05:54:25;;;;;;;0.20;0.20;;;4.50;99.90;;;;;;5082252;28;20202;-86
2020/12/25 05:56:56;;;;;;;0.10;0.10;;;4.50;99.90;;;;;;5085078;28;20189;-84
2020/12/25 05:59:30;;;;;;;0.20;0.20;;;4.50;99.90;;;;;;5084332;28;20203;-84
2020/12/25 06:02:03;;;;;;;2.90;0.50;;;4.60;99.90;;;;;;5103805;28;20192;-84
2020/12/25 06:04:31;;;;;;;0.33;0.33;;;4.50;99.90;;;;;;5109650;28;20188;-84
2020/12/25 06:06:57;;;;;;;1.10;0.30;;;4.50;99.90;;;;;;5081143;28;20185;-85
2020/12/25 06:09:30;;;;;;;0.30;0.30;;;4.40;99.90;;;;;;5108585;28;20330;-87
2020/12/25 06:11:55;;;;;;;0.20;0.20;;;4.40;99.90;;;;;;5081363;28;20283;-83
2020/12/25 06:14:21;;;;;;;0.10;0.10;;;4.40;99.90;;;;;;5095280;28;20263;-85
2020/12/25 06:17:03;;;;;;;0.23;0.23;;;4.30;99.90;;;;;;5082167;28;20208;-83
2020/12/25 06:19:52;;;;;;;0.23;0.23;;;4.30;99.90;;;;;;5086023;28;20653;-85
2020/12/25 06:22:23;;;;;;;0.20;0.20;;;4.40;99.90;;;;;;5097898;28;20591;-85
2020/12/25 06:24:51;;;;;;;0.40;0.20;;;4.40;99.90;;;;;;5082414;28;20189;-83
2020/12/25 06:27:16;;;;;;;0.10;0.10;;;4.40;99.90;;;;;;5084798;28;20192;-84
2020/12/25 06:29:43;;;;;;;0.60;0.30;;;4.40;99.90;;;;;;5081024;28;20186;-85
2020/12/25 06:32:12;;;;;;;0.73;0.30;;;4.40;99.90;;;;;;5094881;28;20668;-85
2020/12/25 06:34:45;;;;;;;0.17;0.17;;;4.30;99.90;;;;;;5093691;28;20197;-83
2020/12/25 06:37:15;;;;;;;0.23;0.23;;;4.20;99.90;;;;;;5086090;28;20205;-83
2020/12/25 06:39:47;;;;;;;0.20;0.20;;;4.10;99.90;;;;;;5105571;28;20551;-84
2020/12/25 06:42:13;;;;;;;1.50;0.50;;;4.20;99.90;;;;;;5084655;28;20210;-84
2020/12/25 06:44:47;;;;;;;0.10;0.10;;;4.30;99.90;;;;;;5104797;28;20776;-83
2020/12/25 06:47:30;;;;;;;0.30;0.23;;;4.10;99.90;;;;;;5083238;28;20189;-84
2020/12/25 06:49:56;;;;;;;0.87;0.40;;;4.10;99.90;;;;;;5077705;28;20559;-83
2020/12/25 06:52:31;;;;;;;0.10;0.10;;;4.10;99.90;;;;;;5101517;28;20687;-84
2020/12/25 06:54:57;;;;;;;0.00;0.00;;;4.10;99.90;;;;;;5083510;28;20193;-83
2020/12/25 06:57:26;;;;;;;1.00;0.60;;;4.20;99.90;;;;;;5080435;28;20295;-84
2020/12/25 06:59:52;;;;;;;0.03;0.03;;;4.20;99.90;;;;;;5082561;28;20245;-83
2020/12/25 07:02:18;;;;;;;0.10;0.10;;;4.10;99.90;;;;;;5095826;28;20196;-83
2020/12/25 07:04:44;;;;;;;0.57;0.20;;;4.00;99.90;;;;;;5106216;28;20183;-85
2020/12/25 07:07:10;;;;;;;0.10;0.10;;;4.20;99.90;;;;;;5092976;28;20180;-82
2020/12/25 07:09:40;;;;;;;0.10;0.10;;;4.10;99.90;;;;;;5075571;28;20177;-83
2020/12/25 07:12:13;;;;;;;0.67;0.63;;;4.10;99.90;;;;;;5096579;28;20199;-83
2020/12/25 07:14:38;;;;;;;0.30;0.30;;;4.10;99.90;;;;;;5105583;28;20204;-83
2020/12/25 07:17:04;;;;;;;0.07;0.07;;;4.20;99.90;;;;;;5080572;28;20192;-84
2020/12/25 07:19:29;;;;;;;0.10;0.10;;;4.30;99.90;;;;;;5094300;28;20628;-86
2020/12/25 07:21:56;;;;;;;0.37;0.37;;;4.20;99.90;;;;;;5095135;28;20204;-87
2020/12/25 07:24:23;;;;;;;0.40;0.40;;;4.30;99.90;;;;;;5086505;28;20185;-86
2020/12/25 07:26:53;;;;;;;0.00;0.00;;;4.20;99.90;;;;;;5087979;28;20548;-83
2020/12/25 07:29:32;;;;;;;0.50;0.50;;;4.20;99.90;;;;;;5079477;28;20175;-83
2020/12/25 07:31:57;;;;;;;0.00;0.00;;;4.20;99.90;;;;;;5110459;28;20206;-84
2020/12/25 07:34:25;;;;;;;0.10;0.10;;;4.10;99.90;;;;;;5102932;28;20196;-86
2020/12/25 07:36:53;;;;;;;0.10;0.10;;;4.00;99.90;;;;;;5113117;28;20189;-83
2020/12/25 07:39:20;;;;;;;0.10;0.10;;;3.90;99.90;;;;;;5111779;28;20173;-83
2020/12/25 07:41:46;;;;;;;0.10;0.10;;;4.00;99.90;;;;;;5086666;28;20266;-85
2020/12/25 07:44:11;;;;;;;0.50;0.50;;;3.90;99.90;;;;;;5073569;28;20190;-85
2020/12/25 07:46:38;;;;;;;0.10;0.10;;;4.00;99.90;;;;;;5086565;28;20188;-83
2020/12/25 07:49:06;;;;;;;0.10;0.10;;;4.10;99.90;;;;;;5088020;28;20176;-83
2020/12/25 07:51:32;;;;;;;0.20;0.07;;;4.20;99.90;;;;;;5086073;28;20254;-86
2020/12/25 07:53:59;;;;;;;1.90;0.20;;;4.30;99.90;;;;;;5100358;28;20181;-85
2020/12/25 07:56:31;;;;;;;0.57;0.57;;;4.40;99.90;;;;;;5084744;28;20175;-84
2020/12/25 07:58:57;;;;;;;0.10;0.10;;;4.50;99.90;;;;;;5088328;28;20220;-86
2020/12/25 08:01:24;;;;;;;2.17;0.40;;;4.30;99.90;;;;;;5088652;28;20239;-85
2020/12/25 08:03:51;;;;;;;0.20;0.20;;;4.30;99.90;;;;;;5099826;28;20210;-83
2020/12/25 08:06:22;;;;;;;0.20;0.20;;;3.90;99.90;;;;;;5080798;28;20521;-84
2020/12/25 08:08:51;;;;;;;0.20;0.20;;;4.00;99.90;;;;;;5108548;28;20661;-87
2020/12/25 08:11:18;;;;;;;0.20;0.20;;;4.10;99.90;;;;;;5093223;28;20192;-83
2020/12/25 08:13:47;;;;;;;0.23;0.23;;;4.20;99.90;;;;;;5081217;28;20779;-86
2020/12/25 08:16:13;;;;;;;0.20;0.20;;;4.40;99.90;;;;;;5084239;28;20200;-85
2020/12/25 08:18:39;;;;;;;0.10;0.10;;;4.60;99.90;;;;;;5104572;28;20218;-83
2020/12/25 08:21:05;;;;;;;0.10;0.10;;;4.80;99.90;;;;;;5083950;28;20234;-84
2020/12/25 08:23:34;;;;;;;0.10;0.10;;;4.70;99.90;;;;;;5079411;28;20190;-85
2020/12/25 08:26:00;;;;;;;0.10;0.10;;;4.80;99.90;;;;;;5084541;28;20197;-84
2020/12/25 08:28:26;;;;;;;0.10;0.10;;;4.60;99.90;;;;;;5090619;28;20193;-83
2020/12/25 08:30:51;;;;;;;0.00;0.00;;;4.50;99.90;;;;;;5098310;28;20208;-85
2020/12/25 08:33:27;;;;;;;0.17;0.10;;;4.50;99.90;;;;;;5103749;28;20189;-84
2020/12/25 08:35:53;;;;;;;0.10;0.10;;;4.90;99.90;;;;;;5107298;28;20350;-83
2020/12/25 08:38:19;;;;;;;0.20;0.20;;;5.00;99.90;;;;;;5080346;28;20212;-83
2020/12/25 08:40:47;;;;;;;0.53;0.30;;;4.70;99.90;;;;;;5099807;28;20266;-83
2020/12/25 08:43:17;;;;;;;0.10;0.10;;;4.50;99.90;;;;;;5092688;28;20649;-84
2020/12/25 08:45:58;;;;;;;0.13;0.13;;;4.50;99.90;;;;;;5091108;28;20651;-84
2020/12/25 08:48:23;;;;;;;0.33;0.33;;;4.30;99.90;;;;;;5082733;28;20197;-83
2020/12/25 08:50:49;;;;;;;0.10;0.10;;;4.20;99.90;;;;;;5097714;28;20232;-83
2020/12/25 08:53:22;;;;;;;0.20;0.20;;;4.20;99.90;;;;;;5112759;28;20201;-84
2020/12/25 08:55:49;;;;;;;0.27;0.27;;;4.40;99.90;;;;;;5113684;28;20204;-83
2020/12/25 08:58:20;;;;;;;0.00;0.00;;;4.30;99.90;;;;;;5108714;28;20175;-86
2020/12/25 09:01:03;;;;;;;0.20;0.20;;;4.40;99.90;;;;;;5098167;28;20351;-84
2020/12/25 09:03:42;;;;;;;0.20;0.20;;;4.70;99.90;;;;;;5091187;28;20225;-84
2020/12/25 09:06:09;;;;;;;0.10;0.10;;;4.70;99.90;;;;;;5100531;28;20190;-84
2020/12/25 09:08:36;;;;;;;0.10;0.10;;;5.00;99.90;;;;;;5080413;28;20275;-85
2020/12/25 09:11:01;;;;;;;0.00;0.00;;;5.00;99.90;;;;;;5111895;28;20212;-85
2020/12/25 09:13:27;;;;;;;0.10;0.10;;;4.80;99.90;;;;;;5086468;28;20196;-84
2020/12/25 09:15:53;;;;;;;0.10;0.10;;;4.80;99.90;;;;;;5113538;28;20696;-84
2020/12/25 09:18:18;;;;;;;0.10;0.10;;;4.50;99.90;;;;;;5084335;28;20215;-83
2020/12/25 09:20:44;;;;;;;3.60;0.63;;;4.90;99.90;;;;;;5091493;28;20213;-84
2020/12/25 09:23:09;;;;;;;0.17;0.10;;;5.10;99.90;;;;;;5092926;28;20185;-83
2020/12/25 09:25:35;;;;;;;2.77;0.20;;;5.10;99.90;;;;;;5085661;28;20192;-83
2020/12/25 09:28:00;;;;;;;0.20;0.20;;;5.00;99.90;;;;;;5084217;28;20193;-85
2020/12/25 09:30:26;;;;;;;0.10;0.10;;;5.10;99.90;;;;;;5087639;28;20267;-83
2020/12/25 09:32:51;;;;;;;0.10;0.10;;;4.90;99.90;;;;;;5098261;28;20192;-84
2020/12/25 09:35:17;;;;;;;0.37;0.37;;;4.80;99.90;;;;;;5104425;28;20233;-85
2020/12/25 09:37:42;;;;;;;0.10;0.10;;;4.90;99.90;;;;;;5103906;28;20699;-85
2020/12/25 09:40:08;;;;;;;0.10;0.10;;;4.90;99.90;;;;;;5108671;28;20188;-83
2020/12/25 09:42:34;;;;;;;0.00;0.00;;;4.90;99.90;;;;;;5082480;28;20206;-84
2020/12/25 09:44:59;;;;;;;0.10;0.10;;;4.90;99.90;;;;;;5089142;28;20727;-86
2020/12/25 09:47:25;;;;;;;0.00;0.00;;;4.90;99.90;;;;;;5088557;28;20189;-84
2020/12/25 09:49:50;;;;;;;0.20;0.20;;;4.80;99.90;;;;;;5109166;28;20200;-84
2020/12/25 09:52:16;;;;;;;0.10;0.10;;;4.80;99.90;;;;;;5083241;28;20251;-87
2020/12/25 09:54:41;;;;;;;0.10;0.10;;;4.70;99.90;;;;;;5088964;28;20204;-83
2020/12/25 09:57:07;;;;;;;0.20;0.20;;;5.00;99.90;;;;;;5089393;28;20229;-84
2020/12/25 09:59:32;;;;;;;0.10;0.10;;;4.80;99.90;;;;;;5087394;28;20242;-84
2020/12/25 10:01:58;;;;;;;0.17;0.17;;;4.70;99.90;;;;;;5105227;28;20718;-84
2020/12/25 10:04:23;;;;;;;0.83;0.83;;;4.90;99.90;;;;;;5109489;28;20186;-85
2020/12/25 10:06:49;;;;;;;0.63;0.63;;;4.80;99.90;;;;;;5094008;28;20182;-82
2020/12/25 10:09:14;;;;;;;0.00;0.00;;;5.00;99.90;;;;;;5083216;28;20181;-83
2020/12/25 10:11:40;;;;;;;0.00;0.00;;;5.00;99.90;;;;;;5095123;28;20258;-83
2020/12/25 10:14:06;;;;;;;0.00;0.00;;;5.00;99.90;;;;;;5089945;28;20186;-84
2020/12/25 10:16:34;;;;;;;0.20;0.20;;;4.90;99.90;;;;;;5099370;28;20271;-84
2020/12/25 10:18:59;;;;;;;0.10;0.10;;;5.00;99.90;;;;;;5096470;28;20182;-85
2020/12/25 10:21:25;;;;;;;0.10;0.10;;;5.10;99.90;;;;;;5095234;28;20205;-86
2020/12/25 10:23:50;;;;;;;0.10;0.10;;;5.40;99.90;;;;;;5082116;28;20191;-84
2020/12/25 10:26:16;;;;;;;0.00;0.00;;;5.50;99.90;;;;;;5083149;28;20180;-86
2020/12/25 10:28:41;;;;;;;0.00;0.00;;;5.40;99.90;;;;;;5090077;28;20194;-85
2020/12/25 10:31:08;;;;;;;0.13;0.13;;;5.20;99.90;;;;;;5082712;28;20199;-84
2020/12/25 10:33:34;;;;;;;0.03;0.03;;;5.40;99.90;;;;;;5080635;28;20558;-84
2020/12/25 10:36:00;;;;;;;0.10;0.10;;;5.40;99.90;;;;;;5083996;28;20207;-84
2020/12/25 10:38:25;;;;;;;0.10;0.10;;;5.20;99.90;;;;;;5108474;28;20177;-86
2020/12/25 10:40:51;;;;;;;0.40;0.40;;;5.10;99.90;;;;;;5107993;28;20211;-82
2020/12/25 10:43:16;;;;;;;0.10;0.10;;;5.20;99.90;;;;;;5091930;28;20657;-84
2020/12/25 10:45:42;;;;;;;0.10;0.10;;;5.20;99.90;;;;;;5085468;28;20181;-86
2020/12/25 10:48:08;;;;;;;0.10;0.10;;;5.00;99.90;;;;;;5080832;28;20290;-85
2020/12/25 10:50:34;;;;;;;0.30;0.30;;;5.20;99.90;;;;;;5083899;28;20679;-84
2020/12/25 10:52:59;;;;;;;0.10;0.10;;;5.40;99.90;;;;;;5087298;28;20190;-83
2020/12/25 10:55:25;;;;;;;0.00;0.00;;;5.10;99.90;;;;;;5085127;28;20214;-83
2020/12/25 10:57:50;;;;;;;0.20;0.20;;;5.10;99.90;;;;;;5079569;28;20238;-87
2020/12/25 11:00:16;;;;;;;0.10;0.10;;;5.10;99.90;;;;;;5082123;28;20227;-85
2020/12/25 11:02:41;;;;;;;0.00;0.00;;;5.30;99.90;;;;;;5087330;28;20186;-83
2020/12/25 11:05:07;;;;;;;0.77;0.20;;;5.10;99.90;;;;;;5084789;28;20212;-85
2020/12/25 11:07:32;;;;;;;0.47;0.20;;;5.10;99.90;;;;;;5084655;28;20606;-84
2020/12/25 11:09:58;;;;;;;0.10;0.10;;;5.00;99.90;;;;;;5099203;28;20541;-83
2020/12/25 11:12:23;;;;;;;0.10;0.10;;;5.00;99.90;;;;;;5077626;28;20681;-84
2020/12/25 11:14:49;;;;;;;0.17;0.17;;;4.90;99.90;;;;;;5082998;28;20198;-84
2020/12/25 11:17:17;;;;;;;0.67;0.30;;;5.10;99.90;;;;;;5110100;28;20317;-84
2020/12/25 11:19:43;;;;;;;0.10;0.10;;;5.10;99.90;;;;;;5102831;28;20287;-87
2020/12/25 11:22:14;;;;;;;0.10;0.10;;;5.00;99.90;;;;;;5080132;28;20314;-86
2020/12/25 11:24:43;;;;;;;0.00;0.00;;;4.80;99.90;;;;;;5114571;28;20175;-85
2020/12/25 11:27:10;;;;;;;1.97;1.20;;;4.90;99.90;;;;;;5090568;28;20271;-83
2020/12/25 11:29:36;;;;;;;3.47;1.13;;;5.00;99.90;;;;;;5087667;28;20177;-83
2020/12/25 11:32:01;;;;;;;1.80;1.23;;;5.20;99.90;;;;;;5080777;28;20197;-84
2020/12/25 11:34:27;;;;;;;1.53;0.80;;;5.20;99.90;;;;;;5095376;28;20560;-83
2020/12/25 11:36:52;;;;;;;0.97;0.57;;;5.20;99.90;;;;;;5073787;28;20535;-84
2020/12/25 11:39:18;;;;;;;0.10;0.10;;;5.20;99.90;;;;;;5098755;28;20183;-85
2020/12/25 11:41:44;;;;;;;0.17;0.17;;;5.50;99.90;;;;;;5088473;28;20252;-82
2020/12/25 11:44:09;;;;;;;1.07;0.27;;;5.50;99.90;;;;;;5073448;28;20173;-83
2020/12/25 11:46:35;;;;;;;0.20;0.20;;;5.60;99.90;;;;;;5087947;28;20190;-84
2020/12/25 11:49:03;;;;;;;0.00;0.00;;;5.50;99.90;;;;;;5086446;28;20600;-84
2020/12/25 11:51:29;;;;;;;0.13;0.13;;;5.90;99.90;;;;;;5085633;28;20593;-84
2020/12/25 11:53:55;;;;;;;0.20;0.20;;;5.90;99.90;;;;;;5101388;28;20654;-84
2020/12/25 11:56:23;;;;;;;0.40;0.40;;;5.90;99.90;;;;;;5094406;28;20205;-84
2020/12/25 11:58:49;;;;;;;0.37;0.30;;;6.00;99.90;;;;;;5093429;28;20178;-86
2020/12/25 12:01:15;;;;;;;0.20;0.20;;;6.10;99.90;;;;;;5081085;28;20573;-85
2020/12/25 12:03:42;;;;;;;0.13;0.13;;;5.80;99.90;;;;;;5082166;28;20183;-86
2020/12/25 12:06:09;;;;;;;1.50;0.30;;;5.90;99.90;;;;;;5084861;28;20177;-84
2020/12/25 12:08:35;;;;;;;0.20;0.20;;;5.90;99.90;;;;;;5111214;28;20237;-84
2020/12/25 12:11:01;;;;;;;0.20;0.20;;;6.20;99.90;;;;;;5091709;28;20207;-84
2020/12/25 12:13:26;;;;;;;0.10;0.10;;;6.20;99.90;;;;;;5104725;28;20528;-84
2020/12/25 12:15:52;;;;;;;0.83;0.57;;;5.80;99.90;;;;;;5118078;28;20675;-85
2020/12/25 12:18:17;;;;;;;0.20;0.10;;;6.00;99.90;;;;;;5104449;28;20187;-84
2020/12/25 12:20:43;;;;;;;0.13;0.13;;;6.00;99.90;;;;;;5084323;28;20692;-83
2020/12/25 12:23:09;;;;;;;0.30;0.30;;;6.20;99.90;;;;;;5084474;28;20207;-85
2020/12/25 12:25:35;;;;;;;0.10;0.10;;;6.50;99.90;;;;;;5105612;28;20574;-87
2020/12/25 12:28:00;;;;;;;0.20;0.20;;;6.00;99.90;;;;;;5101753;28;20552;-86
2020/12/25 12:30:26;;;;;;;1.20;1.20;;;6.00;99.90;;;;;;5094488;28;20238;-84
2020/12/25 12:32:52;;;;;;;0.10;0.10;;;6.10;99.90;;;;;;5107419;28;20180;-83
2020/12/25 12:35:18;;;;;;;0.10;0.10;;;5.90;99.90;;;;;;5091137;28;20230;-84
2020/12/25 12:37:45;;;;;;;0.10;0.10;;;5.80;99.90;;;;;;5104650;28;20180;-84
2020/12/25 12:40:12;;;;;;;0.40;0.40;;;5.80;99.90;;;;;;5103340;28;20195;-83
2020/12/25 12:42:37;;;;;;;0.00;0.00;;;6.10;99.90;;;;;;5104536;28;20190;-83
2020/12/25 12:45:04;;;;;;;0.03;0.03;;;6.00;99.90;;;;;;5076291;28;20185;-84
2020/12/25 12:47:29;;;;;;;0.50;0.33;;;6.00;99.90;;;;;;5085221;28;20181;-83
2020/12/25 12:49:55;;;;;;;0.50;0.50;;;6.40;99.90;;;;;;5089126;28;20202;-90
2020/12/25 12:52:21;;;;;;;1.57;0.40;;;6.50;99.90;;;;;;5086044;28;20222;-83
2020/12/25 12:54:46;;;;;;;0.40;0.40;;;6.40;99.90;;;;;;5092266;28;20247;-83
2020/12/25 12:57:12;;;;;;;0.20;0.20;;;6.40;99.90;;;;;;5092247;28;20186;-84